SBVT

Details ICAO SBVT (VIX)
Name Goiabeiras
Region Brazil
Timezone America/Sao_Paulo (UTC-2.0)
Plans Departing 128
Arriving 116
Stats Elevation 11 ft / 3 m (AMSL)
Location -20.255611° -40.288893°
Runways 1
Magnetic Variation 23.797° W
Sunrise 2017-12-13 07:56:34 UTC / 2017-12-13 05:56:34 Local
Sunset 2017-12-13 21:17:05 UTC / 2017-12-13 19:17:05 Local
Advertisement - Login to hide

Runways

ID Width Length Bearing (true) Bearing (mag) Surface Threshold Offset Overrun Length
05 148 ft / 45 m 5,769 ft / 1,759 m 31.71° 55.51° Asphalt 0 ft / 0 m 189 ft / 58 m
23 148 ft / 45 m 5,769 ft / 1,759 m 211.71° 235.51° Asphalt 0 ft / 0 m 189 ft / 58 m

Map

Weather


0- 5 10 15 20 25 30 35+ Temperature / ° C

Clouds and Precipitation
Forecast for 2017-12-14 00:00 UTC. Updated 2 hours ago

Ground ~20,000 ft ~40,000 ft Winds

METAR

SBVT 140100Z 14008KT 9999 SCT025 BKN070 25/19 Q1020

TAF

TAF SBVT 132200Z 1400/1424 17008KT 7000 SCT020 BKN040 TN23/1408Z TX27/1415Z BECMG 1405/1407 SCT010 SCT020 PROB40 1409/1411 BKN010 TEMPO 1416/1419 4000 RA SCT010 BKN015 FEW025TCU PROB30 1420/1422 4500 TSRA BKN015 FEW030CB RMK PEU

Frequencies

Recorded 127.57 MHz VITORIA ATIS
Approach 119.85 MHz VITORIA APP
Tower 118.10 MHz VITORIA TWR
Warning: Do not use this data for real-world aviation or navigation. No guarantee of current accuracy is given.